Terminal Aerodrome Forecast
Issued by NWS

Home | Current Version | Previous Version | Text Only | Print | Product List | Glossary On
Versions: 1 2 3 4 5 6 7 8 9 10 11 12 13 14 15
000
FTUS43 KDVN 201124
TAFCID
TAF
KCID 201124Z 2012/2112 22006KT P6SM BKN250
     FM202100 18004KT 6SM BR OVC015
     FM210100 16003KT 2SM BR OVC012
     FM210600 10004KT 1/2SM -DZ FG OVC004=

USA.gov is the U.S. government's official web portal to all federal, state and local government web resources and services.